sensor_id;sensor_type;location;lat;lon;timestamp;temperature;humidity
21387;DHT22;10854;45.922;6.716;2022-11-15T00:02:58;10.60;80.50
21387;DHT22;10854;45.922;6.716;2022-11-15T00:05:30;10.60;80.40
21387;DHT22;10854;45.922;6.716;2022-11-15T00:08:42;10.60;80.50
21387;DHT22;10854;45.922;6.716;2022-11-15T00:11:12;10.60;80.30
21387;DHT22;10854;45.922;6.716;2022-11-15T00:15:04;10.70;80.70
21387;DHT22;10854;45.922;6.716;2022-11-15T00:17:33;10.70;80.80
21387;DHT22;10854;45.922;6.716;2022-11-15T00:20:02;10.70;80.80
21387;DHT22;10854;45.922;6.716;2022-11-15T00:22:33;10.70;81.60
21387;DHT22;10854;45.922;6.716;2022-11-15T00:29:11;10.70;81.80
21387;DHT22;10854;45.922;6.716;2022-11-15T00:31:52;10.60;81.90
21387;DHT22;10854;45.922;6.716;2022-11-15T00:34:21;10.60;82.30
21387;DHT22;10854;45.922;6.716;2022-11-15T00:37:35;10.50;84.20
21387;DHT22;10854;45.922;6.716;2022-11-15T00:40:05;10.40;85.90
21387;DHT22;10854;45.922;6.716;2022-11-15T00:42:39;10.20;86.50
21387;DHT22;10854;45.922;6.716;2022-11-15T00:45:12;10.10;87.70
21387;DHT22;10854;45.922;6.716;2022-11-15T00:47:46;10.00;88.30
21387;DHT22;10854;45.922;6.716;2022-11-15T00:50:16;9.90;89.80
21387;DHT22;10854;45.922;6.716;2022-11-15T00:52:48;9.80;89.80
21387;DHT22;10854;45.922;6.716;2022-11-15T00:55:18;9.80;90.00
21387;DHT22;10854;45.922;6.716;2022-11-15T01:01:58;9.80;90.40
21387;DHT22;10854;45.922;6.716;2022-11-15T01:04:48;9.70;90.50
21387;DHT22;10854;45.922;6.716;2022-11-15T01:08:33;9.70;90.60
21387;DHT22;10854;45.922;6.716;2022-11-15T01:11:28;9.60;90.70
21387;DHT22;10854;45.922;6.716;2022-11-15T01:14:35;9.60;90.80
21387;DHT22;10854;45.922;6.716;2022-11-15T01:17:27;9.60;91.00
21387;DHT22;10854;45.922;6.716;2022-11-15T01:20:09;9.60;91.20
21387;DHT22;10854;45.922;6.716;2022-11-15T01:24:01;9.60;91.30
21387;DHT22;10854;45.922;6.716;2022-11-15T01:26:44;9.50;91.50
21387;DHT22;10854;45.922;6.716;2022-11-15T01:29:14;9.50;91.70
21387;DHT22;10854;45.922;6.716;2022-11-15T01:32:15;9.50;91.90
21387;DHT22;10854;45.922;6.716;2022-11-15T01:34:45;9.50;92.10
21387;DHT22;10854;45.922;6.716;2022-11-15T01:37:14;9.50;92.20
21387;DHT22;10854;45.922;6.716;2022-11-15T01:39:44;9.50;92.40
21387;DHT22;10854;45.922;6.716;2022-11-15T01:42:13;9.50;92.50
21387;DHT22;10854;45.922;6.716;2022-11-15T01:44:49;9.50;93.30
21387;DHT22;10854;45.922;6.716;2022-11-15T01:47:29;9.50;93.70
21387;DHT22;10854;45.922;6.716;2022-11-15T01:50:38;9.50;94.60
21387;DHT22;10854;45.922;6.716;2022-11-15T01:53:07;9.50;94.60
21387;DHT22;10854;45.922;6.716;2022-11-15T01:55:36;9.40;95.00
21387;DHT22;10854;45.922;6.716;2022-11-15T01:59:00;9.40;95.50
21387;DHT22;10854;45.922;6.716;2022-11-15T02:01:46;9.30;96.70
21387;DHT22;10854;45.922;6.716;2022-11-15T02:04:47;9.30;97.60
21387;DHT22;10854;45.922;6.716;2022-11-15T02:07:17;9.20;98.10
21387;DHT22;10854;45.922;6.716;2022-11-15T02:09:48;9.10;98.90
21387;DHT22;10854;45.922;6.716;2022-11-15T02:12:44;9.10;99.70
21387;DHT22;10854;45.922;6.716;2022-11-15T02:15:15;9.10;99.90
21387;DHT22;10854;45.922;6.716;2022-11-15T02:18:18;9.00;99.90
21387;DHT22;10854;45.922;6.716;2022-11-15T02:21:12;9.00;99.90
21387;DHT22;10854;45.922;6.716;2022-11-15T02:26:43;8.90;99.90
21387;DHT22;10854;45.922;6.716;2022-11-15T02:35:12;8.70;99.90
21387;DHT22;10854;45.922;6.716;2022-11-15T02:37:56;8.70;99.90
21387;DHT22;10854;45.922;6.716;2022-11-15T02:40:42;8.70;99.90
21387;DHT22;10854;45.922;6.716;2022-11-15T02:43:22;8.70;99.90
21387;DHT22;10854;45.922;6.716;2022-11-15T02:46:35;8.60;99.90
21387;DHT22;10854;45.922;6.716;2022-11-15T02:49:29;8.50;99.90
21387;DHT22;10854;45.922;6.716;2022-11-15T02:51:59;8.40;99.90
21387;DHT22;10854;45.922;6.716;2022-11-15T02:54:33;8.40;99.90
21387;DHT22;10854;45.922;6.716;2022-11-15T02:57:13;8.30;99.90
21387;DHT22;10854;45.922;6.716;2022-11-15T03:05:34;8.10;99.90
21387;DHT22;10854;45.922;6.716;2022-11-15T03:08:17;8.10;99.90
21387;DHT22;10854;45.922;6.716;2022-11-15T03:10:53;8.00;99.90
21387;DHT22;10854;45.922;6.716;2022-11-15T03:13:39;8.00;99.90
21387;DHT22;10854;45.922;6.716;2022-11-15T03:19:33;7.90;99.90
21387;DHT22;10854;45.922;6.716;2022-11-15T03:22:00;7.90;99.90
21387;DHT22;10854;45.922;6.716;2022-11-15T03:24:34;7.90;99.90
21387;DHT22;10854;45.922;6.716;2022-11-15T03:27:06;7.90;99.90
21387;DHT22;10854;45.922;6.716;2022-11-15T03:29:39;7.80;99.90
21387;DHT22;10854;45.922;6.716;2022-11-15T03:32:17;7.80;99.90
21387;DHT22;10854;45.922;6.716;2022-11-15T03:35:01;7.80;99.90
21387;DHT22;10854;45.922;6.716;2022-11-15T03:40:10;7.80;99.90
21387;DHT22;10854;45.922;6.716;2022-11-15T03:42:57;7.80;99.90
21387;DHT22;10854;45.922;6.716;2022-11-15T03:48:41;7.80;99.90
21387;DHT22;10854;45.922;6.716;2022-11-15T03:51:11;7.80;99.90
21387;DHT22;10854;45.922;6.716;2022-11-15T03:53:41;7.80;99.90
21387;DHT22;10854;45.922;6.716;2022-11-15T03:56:09;7.80;99.90
21387;DHT22;10854;45.922;6.716;2022-11-15T03:58:38;7.80;99.90
21387;DHT22;10854;45.922;6.716;2022-11-15T04:01:07;7.80;99.90
21387;DHT22;10854;45.922;6.716;2022-11-15T04:03:35;7.80;99.90
21387;DHT22;10854;45.922;6.716;2022-11-15T04:06:04;7.80;99.90
21387;DHT22;10854;45.922;6.716;2022-11-15T04:08:35;7.80;99.90
21387;DHT22;10854;45.922;6.716;2022-11-15T04:11:03;7.80;99.90
21387;DHT22;10854;45.922;6.716;2022-11-15T04:13:32;7.80;99.90
21387;DHT22;10854;45.922;6.716;2022-11-15T04:16:00;7.80;99.90
21387;DHT22;10854;45.922;6.716;2022-11-15T04:18:29;7.80;99.90
21387;DHT22;10854;45.922;6.716;2022-11-15T04:20:58;7.80;99.90
21387;DHT22;10854;45.922;6.716;2022-11-15T04:23:48;7.80;99.90
21387;DHT22;10854;45.922;6.716;2022-11-15T04:26:35;7.80;99.90
21387;DHT22;10854;45.922;6.716;2022-11-15T04:29:03;7.80;99.90
21387;DHT22;10854;45.922;6.716;2022-11-15T04:31:50;7.90;99.90
21387;DHT22;10854;45.922;6.716;2022-11-15T04:34:19;7.90;99.90
21387;DHT22;10854;45.922;6.716;2022-11-15T04:36:47;7.90;99.90
21387;DHT22;10854;45.922;6.716;2022-11-15T04:39:34;7.90;99.90
21387;DHT22;10854;45.922;6.716;2022-11-15T04:42:02;7.90;99.90
21387;DHT22;10854;45.922;6.716;2022-11-15T04:44:31;8.00;99.90
21387;DHT22;10854;45.922;6.716;2022-11-15T04:46:59;8.00;99.90
21387;DHT22;10854;45.922;6.716;2022-11-15T04:49:28;8.10;99.90
21387;DHT22;10854;45.922;6.716;2022-11-15T04:51:57;8.10;99.90
21387;DHT22;10854;45.922;6.716;2022-11-15T04:54:26;8.10;99.90
21387;DHT22;10854;45.922;6.716;2022-11-15T04:56:55;8.10;99.90
21387;DHT22;10854;45.922;6.716;2022-11-15T04:59:24;8.10;99.90
21387;DHT22;10854;45.922;6.716;2022-11-15T05:01:52;8.10;99.90
21387;DHT22;10854;45.922;6.716;2022-11-15T05:04:21;8.10;99.90
21387;DHT22;10854;45.922;6.716;2022-11-15T05:06:51;8.10;99.90
21387;DHT22;10854;45.922;6.716;2022-11-15T05:09:21;8.10;99.90
21387;DHT22;10854;45.922;6.716;2022-11-15T05:11:50;8.20;99.90
21387;DHT22;10854;45.922;6.716;2022-11-15T05:14:18;8.20;99.90
21387;DHT22;10854;45.922;6.716;2022-11-15T05:16:48;8.20;99.90
21387;DHT22;10854;45.922;6.716;2022-11-15T05:19:16;8.20;99.90
21387;DHT22;10854;45.922;6.716;2022-11-15T05:21:45;8.20;99.90
21387;DHT22;10854;45.922;6.716;2022-11-15T05:24:13;8.30;99.90
21387;DHT22;10854;45.922;6.716;2022-11-15T05:26:41;8.30;99.90
21387;DHT22;10854;45.922;6.716;2022-11-15T05:29:10;8.40;99.90
21387;DHT22;10854;45.922;6.716;2022-11-15T05:31:40;8.40;99.90
21387;DHT22;10854;45.922;6.716;2022-11-15T05:34:09;8.50;99.90
21387;DHT22;10854;45.922;6.716;2022-11-15T05:36:43;8.60;99.90
21387;DHT22;10854;45.922;6.716;2022-11-15T05:39:12;8.70;99.90
21387;DHT22;10854;45.922;6.716;2022-11-15T05:41:44;8.80;99.90
21387;DHT22;10854;45.922;6.716;2022-11-15T05:44:19;8.90;99.90
21387;DHT22;10854;45.922;6.716;2022-11-15T05:46:50;8.90;99.90
21387;DHT22;10854;45.922;6.716;2022-11-15T05:49:23;9.00;99.90
21387;DHT22;10854;45.922;6.716;2022-11-15T05:51:53;9.00;99.90
21387;DHT22;10854;45.922;6.716;2022-11-15T05:54:22;9.00;99.90
21387;DHT22;10854;45.922;6.716;2022-11-15T05:56:51;9.00;99.90
21387;DHT22;10854;45.922;6.716;2022-11-15T05:59:20;9.00;99.90
21387;DHT22;10854;45.922;6.716;2022-11-15T06:01:50;9.10;99.90
21387;DHT22;10854;45.922;6.716;2022-11-15T06:04:20;9.00;99.90
21387;DHT22;10854;45.922;6.716;2022-11-15T06:06:49;9.00;99.90
21387;DHT22;10854;45.922;6.716;2022-11-15T06:09:18;9.00;99.90
21387;DHT22;10854;45.922;6.716;2022-11-15T06:11:46;8.90;99.90
21387;DHT22;10854;45.922;6.716;2022-11-15T06:14:16;8.90;99.90
21387;DHT22;10854;45.922;6.716;2022-11-15T06:16:45;8.90;99.90
21387;DHT22;10854;45.922;6.716;2022-11-15T06:19:13;8.80;99.90
21387;DHT22;10854;45.922;6.716;2022-11-15T06:21:42;8.80;99.90
21387;DHT22;10854;45.922;6.716;2022-11-15T06:24:10;8.90;99.90
21387;DHT22;10854;45.922;6.716;2022-11-15T06:26:38;8.90;99.90
21387;DHT22;10854;45.922;6.716;2022-11-15T06:29:07;9.00;99.90
21387;DHT22;10854;45.922;6.716;2022-11-15T06:31:35;9.10;99.90
21387;DHT22;10854;45.922;6.716;2022-11-15T06:34:04;9.10;99.90
21387;DHT22;10854;45.922;6.716;2022-11-15T06:36:34;9.20;99.90
21387;DHT22;10854;45.922;6.716;2022-11-15T06:39:04;9.30;99.90
21387;DHT22;10854;45.922;6.716;2022-11-15T06:41:36;9.40;99.90
21387;DHT22;10854;45.922;6.716;2022-11-15T06:44:04;9.40;99.90
21387;DHT22;10854;45.922;6.716;2022-11-15T06:46:33;9.40;99.90
21387;DHT22;10854;45.922;6.716;2022-11-15T06:49:01;9.40;99.90
21387;DHT22;10854;45.922;6.716;2022-11-15T06:51:33;9.30;99.90
21387;DHT22;10854;45.922;6.716;2022-11-15T06:54:01;9.30;99.90
21387;DHT22;10854;45.922;6.716;2022-11-15T06:56:29;9.20;99.90
21387;DHT22;10854;45.922;6.716;2022-11-15T06:58:58;9.20;99.90
21387;DHT22;10854;45.922;6.716;2022-11-15T07:01:26;9.20;99.90
21387;DHT22;10854;45.922;6.716;2022-11-15T07:03:55;9.20;99.90
21387;DHT22;10854;45.922;6.716;2022-11-15T07:06:25;9.20;99.90
21387;DHT22;10854;45.922;6.716;2022-11-15T07:08:54;9.20;99.90
21387;DHT22;10854;45.922;6.716;2022-11-15T07:11:22;9.20;99.90
21387;DHT22;10854;45.922;6.716;2022-11-15T07:13:50;9.20;99.90
21387;DHT22;10854;45.922;6.716;2022-11-15T07:16:19;9.30;99.90
21387;DHT22;10854;45.922;6.716;2022-11-15T07:18:48;9.40;99.90
21387;DHT22;10854;45.922;6.716;2022-11-15T07:21:16;9.40;99.90
21387;DHT22;10854;45.922;6.716;2022-11-15T07:23:46;9.50;99.90
21387;DHT22;10854;45.922;6.716;2022-11-15T07:26:15;9.70;99.90
21387;DHT22;10854;45.922;6.716;2022-11-15T07:28:44;9.70;99.90
21387;DHT22;10854;45.922;6.716;2022-11-15T07:31:13;9.80;99.90
21387;DHT22;10854;45.922;6.716;2022-11-15T07:33:41;9.90;99.90
21387;DHT22;10854;45.922;6.716;2022-11-15T07:36:10;10.00;99.90
21387;DHT22;10854;45.922;6.716;2022-11-15T07:38:38;10.00;99.90
21387;DHT22;10854;45.922;6.716;2022-11-15T07:41:09;10.10;99.90
21387;DHT22;10854;45.922;6.716;2022-11-15T07:43:40;10.20;99.90
21387;DHT22;10854;45.922;6.716;2022-11-15T07:46:09;10.30;99.90
21387;DHT22;10854;45.922;6.716;2022-11-15T07:48:38;10.30;99.90
21387;DHT22;10854;45.922;6.716;2022-11-15T07:51:16;10.40;99.90
21387;DHT22;10854;45.922;6.716;2022-11-15T07:53:45;10.50;99.90
21387;DHT22;10854;45.922;6.716;2022-11-15T07:56:14;10.50;99.90
21387;DHT22;10854;45.922;6.716;2022-11-15T07:58:42;10.50;99.90
21387;DHT22;10854;45.922;6.716;2022-11-15T08:01:13;10.50;99.90
21387;DHT22;10854;45.922;6.716;2022-11-15T08:03:41;10.50;99.90
21387;DHT22;10854;45.922;6.716;2022-11-15T08:06:10;10.50;99.90
21387;DHT22;10854;45.922;6.716;2022-11-15T08:08:38;10.50;99.90
21387;DHT22;10854;45.922;6.716;2022-11-15T08:11:07;10.50;99.90
21387;DHT22;10854;45.922;6.716;2022-11-15T08:13:39;10.50;99.90
21387;DHT22;10854;45.922;6.716;2022-11-15T08:16:09;10.50;99.90
21387;DHT22;10854;45.922;6.716;2022-11-15T08:18:39;10.50;99.90
21387;DHT22;10854;45.922;6.716;2022-11-15T08:21:09;10.50;99.90
21387;DHT22;10854;45.922;6.716;2022-11-15T08:23:40;10.50;99.90
21387;DHT22;10854;45.922;6.716;2022-11-15T08:26:09;10.40;99.90
21387;DHT22;10854;45.922;6.716;2022-11-15T08:28:38;10.40;99.90
21387;DHT22;10854;45.922;6.716;2022-11-15T08:31:11;10.50;99.90
21387;DHT22;10854;45.922;6.716;2022-11-15T08:33:40;10.50;99.90
21387;DHT22;10854;45.922;6.716;2022-11-15T08:36:13;10.50;99.90
21387;DHT22;10854;45.922;6.716;2022-11-15T08:38:42;10.50;99.90
21387;DHT22;10854;45.922;6.716;2022-11-15T08:41:31;10.50;99.90
21387;DHT22;10854;45.922;6.716;2022-11-15T08:44:03;10.50;99.90
21387;DHT22;10854;45.922;6.716;2022-11-15T08:46:34;10.60;99.90
21387;DHT22;10854;45.922;6.716;2022-11-15T08:49:03;10.60;99.90
21387;DHT22;10854;45.922;6.716;2022-11-15T08:51:32;10.60;99.90
21387;DHT22;10854;45.922;6.716;2022-11-15T08:54:00;10.70;99.90
21387;DHT22;10854;45.922;6.716;2022-11-15T08:56:29;10.80;99.90
21387;DHT22;10854;45.922;6.716;2022-11-15T08:59:00;10.90;99.90
21387;DHT22;10854;45.922;6.716;2022-11-15T09:01:29;11.10;99.90
21387;DHT22;10854;45.922;6.716;2022-11-15T09:04:04;11.20;99.90
21387;DHT22;10854;45.922;6.716;2022-11-15T09:06:32;11.30;99.30
21387;DHT22;10854;45.922;6.716;2022-11-15T09:09:06;11.40;97.30
21387;DHT22;10854;45.922;6.716;2022-11-15T09:11:34;11.50;96.00
21387;DHT22;10854;45.922;6.716;2022-11-15T09:14:03;11.60;95.40
21387;DHT22;10854;45.922;6.716;2022-11-15T09:16:32;11.70;94.90
21387;DHT22;10854;45.922;6.716;2022-11-15T09:19:05;11.80;94.70
21387;DHT22;10854;45.922;6.716;2022-11-15T09:21:37;11.80;95.20
21387;DHT22;10854;45.922;6.716;2022-11-15T09:24:06;11.80;95.70
21387;DHT22;10854;45.922;6.716;2022-11-15T09:26:35;11.90;96.20
21387;DHT22;10854;45.922;6.716;2022-11-15T09:29:04;11.80;96.70
21387;DHT22;10854;45.922;6.716;2022-11-15T09:31:33;11.80;97.20
21387;DHT22;10854;45.922;6.716;2022-11-15T09:34:02;11.80;97.70
21387;DHT22;10854;45.922;6.716;2022-11-15T09:36:31;11.80;98.10
21387;DHT22;10854;45.922;6.716;2022-11-15T09:38:59;11.80;98.20
21387;DHT22;10854;45.922;6.716;2022-11-15T09:44:21;12.00;99.40
21387;DHT22;10854;45.922;6.716;2022-11-15T09:49:59;12.30;99.90
21387;DHT22;10854;45.922;6.716;2022-11-15T09:52:29;12.40;99.90
21387;DHT22;10854;45.922;6.716;2022-11-15T09:54:58;12.50;99.70
21387;DHT22;10854;45.922;6.716;2022-11-15T09:57:32;12.60;97.60
21387;DHT22;10854;45.922;6.716;2022-11-15T10:00:21;12.70;95.30
21387;DHT22;10854;45.922;6.716;2022-11-15T10:05:46;12.80;92.40
21387;DHT22;10854;45.922;6.716;2022-11-15T10:11:26;12.70;94.10
21387;DHT22;10854;45.922;6.716;2022-11-15T10:14:20;12.70;94.60
21387;DHT22;10854;45.922;6.716;2022-11-15T10:20:17;12.60;95.30
21387;DHT22;10854;45.922;6.716;2022-11-15T10:23:00;12.50;95.80
21387;DHT22;10854;45.922;6.716;2022-11-15T10:25:30;12.60;96.40
21387;DHT22;10854;45.922;6.716;2022-11-15T10:30:40;12.70;95.00
21387;DHT22;10854;45.922;6.716;2022-11-15T10:49:28;13.00;91.60
21387;DHT22;10854;45.922;6.716;2022-11-15T10:52:18;13.10;91.70
21387;DHT22;10854;45.922;6.716;2022-11-15T10:57:52;13.20;89.50
21387;DHT22;10854;45.922;6.716;2022-11-15T11:00:36;13.20;89.30
21387;DHT22;10854;45.922;6.716;2022-11-15T11:03:34;13.30;89.60
21387;DHT22;10854;45.922;6.716;2022-11-15T11:06:18;13.40;89.30
21387;DHT22;10854;45.922;6.716;2022-11-15T11:08:56;13.50;89.80
21387;DHT22;10854;45.922;6.716;2022-11-15T11:11:46;13.50;90.40
21387;DHT22;10854;45.922;6.716;2022-11-15T11:14:35;13.70;90.20
21387;DHT22;10854;45.922;6.716;2022-11-15T11:20:38;13.80;88.30
21387;DHT22;10854;45.922;6.716;2022-11-15T11:23:42;13.90;85.00
21387;DHT22;10854;45.922;6.716;2022-11-15T11:32:40;14.10;81.60
21387;DHT22;10854;45.922;6.716;2022-11-15T11:35:44;14.20;81.10
21387;DHT22;10854;45.922;6.716;2022-11-15T11:38:18;14.20;80.90
21387;DHT22;10854;45.922;6.716;2022-11-15T11:47:20;14.30;84.50
21387;DHT22;10854;45.922;6.716;2022-11-15T11:49:56;14.30;84.90
21387;DHT22;10854;45.922;6.716;2022-11-15T11:52:56;14.30;85.10
21387;DHT22;10854;45.922;6.716;2022-11-15T11:55:45;14.40;85.60
21387;DHT22;10854;45.922;6.716;2022-11-15T11:58:41;14.50;85.80
21387;DHT22;10854;45.922;6.716;2022-11-15T12:01:24;14.50;85.30
21387;DHT22;10854;45.922;6.716;2022-11-15T12:04:26;14.50;85.50
21387;DHT22;10854;45.922;6.716;2022-11-15T12:07:19;14.60;85.60
21387;DHT22;10854;45.922;6.716;2022-11-15T12:10:03;14.60;85.90
21387;DHT22;10854;45.922;6.716;2022-11-15T12:12:41;14.70;85.80
21387;DHT22;10854;45.922;6.716;2022-11-15T12:15:16;14.80;83.80
21387;DHT22;10854;45.922;6.716;2022-11-15T12:17:48;14.80;82.40
21387;DHT22;10854;45.922;6.716;2022-11-15T12:20:22;14.80;82.90
21387;DHT22;10854;45.922;6.716;2022-11-15T12:23:08;14.80;83.20
21387;DHT22;10854;45.922;6.716;2022-11-15T12:28:55;14.80;82.10
21387;DHT22;10854;45.922;6.716;2022-11-15T12:31:47;14.90;83.30
21387;DHT22;10854;45.922;6.716;2022-11-15T12:36:59;14.90;83.60
21387;DHT22;10854;45.922;6.716;2022-11-15T12:40:14;15.00;83.20
21387;DHT22;10854;45.922;6.716;2022-11-15T12:45:45;15.00;82.70
21387;DHT22;10854;45.922;6.716;2022-11-15T12:50:59;15.00;83.00
21387;DHT22;10854;45.922;6.716;2022-11-15T12:53:34;14.90;81.70
21387;DHT22;10854;45.922;6.716;2022-11-15T12:59:00;14.80;79.40
21387;DHT22;10854;45.922;6.716;2022-11-15T13:04:23;14.80;76.80
21387;DHT22;10854;45.922;6.716;2022-11-15T13:13:43;14.80;78.80
21387;DHT22;10854;45.922;6.716;2022-11-15T13:16:20;14.70;80.10
21387;DHT22;10854;45.922;6.716;2022-11-15T13:19:03;14.60;80.70
21387;DHT22;10854;45.922;6.716;2022-11-15T13:21:35;14.60;81.40
21387;DHT22;10854;45.922;6.716;2022-11-15T13:24:52;14.60;81.60
21387;DHT22;10854;45.922;6.716;2022-11-15T13:27:32;14.60;81.60
21387;DHT22;10854;45.922;6.716;2022-11-15T13:30:24;14.50;81.50
21387;DHT22;10854;45.922;6.716;2022-11-15T13:33:20;14.50;80.40
21387;DHT22;10854;45.922;6.716;2022-11-15T13:36:03;14.40;77.00
21387;DHT22;10854;45.922;6.716;2022-11-15T13:39:04;14.40;75.60
21387;DHT22;10854;45.922;6.716;2022-11-15T13:42:41;14.40;73.70
21387;DHT22;10854;45.922;6.716;2022-11-15T13:45:27;14.40;72.50
21387;DHT22;10854;45.922;6.716;2022-11-15T13:47:59;14.40;71.10
21387;DHT22;10854;45.922;6.716;2022-11-15T13:51:00;14.40;71.10
21387;DHT22;10854;45.922;6.716;2022-11-15T13:57:50;14.50;70.10
21387;DHT22;10854;45.922;6.716;2022-11-15T14:00:40;14.50;70.50
21387;DHT22;10854;45.922;6.716;2022-11-15T14:03:42;14.50;71.30
21387;DHT22;10854;45.922;6.716;2022-11-15T14:07:20;14.40;71.20
21387;DHT22;10854;45.922;6.716;2022-11-15T14:10:29;14.40;70.70
21387;DHT22;10854;45.922;6.716;2022-11-15T14:13:00;14.40;70.50
21387;DHT22;10854;45.922;6.716;2022-11-15T14:15:35;14.50;71.00
21387;DHT22;10854;45.922;6.716;2022-11-15T14:18:06;14.50;70.90
21387;DHT22;10854;45.922;6.716;2022-11-15T14:20:38;14.60;71.40
21387;DHT22;10854;45.922;6.716;2022-11-15T14:23:27;14.60;71.30
21387;DHT22;10854;45.922;6.716;2022-11-15T14:26:53;14.60;70.90
21387;DHT22;10854;45.922;6.716;2022-11-15T14:29:55;14.70;70.80
21387;DHT22;10854;45.922;6.716;2022-11-15T14:32:58;14.60;70.40
21387;DHT22;10854;45.922;6.716;2022-11-15T14:35:54;14.60;71.40
21387;DHT22;10854;45.922;6.716;2022-11-15T14:38:29;14.40;74.20
21387;DHT22;10854;45.922;6.716;2022-11-15T14:41:25;14.30;75.50
21387;DHT22;10854;45.922;6.716;2022-11-15T14:43:55;14.20;76.60
21387;DHT22;10854;45.922;6.716;2022-11-15T14:46:58;14.20;77.00
21387;DHT22;10854;45.922;6.716;2022-11-15T14:49:36;14.10;75.50
21387;DHT22;10854;45.922;6.716;2022-11-15T14:52:25;14.10;74.80
21387;DHT22;10854;45.922;6.716;2022-11-15T14:55:01;14.10;73.00
21387;DHT22;10854;45.922;6.716;2022-11-15T14:57:31;14.20;72.70
21387;DHT22;10854;45.922;6.716;2022-11-15T15:00:04;14.20;71.90
21387;DHT22;10854;45.922;6.716;2022-11-15T15:02:41;14.20;70.90
21387;DHT22;10854;45.922;6.716;2022-11-15T15:05:49;14.20;70.90
21387;DHT22;10854;45.922;6.716;2022-11-15T15:08:18;14.20;70.20
21387;DHT22;10854;45.922;6.716;2022-11-15T15:10:47;14.20;70.90
21387;DHT22;10854;45.922;6.716;2022-11-15T15:13:19;14.20;69.90
21387;DHT22;10854;45.922;6.716;2022-11-15T15:15:51;14.20;69.80
21387;DHT22;10854;45.922;6.716;2022-11-15T15:18:22;14.30;69.70
21387;DHT22;10854;45.922;6.716;2022-11-15T15:21:01;14.20;68.80
21387;DHT22;10854;45.922;6.716;2022-11-15T15:24:07;14.20;68.10
21387;DHT22;10854;45.922;6.716;2022-11-15T15:26:39;14.20;68.00
21387;DHT22;10854;45.922;6.716;2022-11-15T15:30:02;14.20;68.30
21387;DHT22;10854;45.922;6.716;2022-11-15T15:33:09;14.20;68.80
21387;DHT22;10854;45.922;6.716;2022-11-15T15:35:38;14.10;70.20
21387;DHT22;10854;45.922;6.716;2022-11-15T15:38:12;14.10;72.10
21387;DHT22;10854;45.922;6.716;2022-11-15T15:41:17;13.90;73.10
21387;DHT22;10854;45.922;6.716;2022-11-15T15:43:47;13.90;72.40
21387;DHT22;10854;45.922;6.716;2022-11-15T15:46:56;13.80;71.30
21387;DHT22;10854;45.922;6.716;2022-11-15T15:49:28;13.80;71.40
21387;DHT22;10854;45.922;6.716;2022-11-15T15:51:57;13.70;73.00
21387;DHT22;10854;45.922;6.716;2022-11-15T15:54:40;13.60;75.50
21387;DHT22;10854;45.922;6.716;2022-11-15T15:57:40;13.50;74.70
21387;DHT22;10854;45.922;6.716;2022-11-15T16:00:36;13.40;73.30
21387;DHT22;10854;45.922;6.716;2022-11-15T16:04:04;13.40;73.00
21387;DHT22;10854;45.922;6.716;2022-11-15T16:06:36;13.40;72.20
21387;DHT22;10854;45.922;6.716;2022-11-15T16:09:25;13.30;72.00
21387;DHT22;10854;45.922;6.716;2022-11-15T16:12:47;13.40;72.00
21387;DHT22;10854;45.922;6.716;2022-11-15T16:15:35;13.40;72.20
21387;DHT22;10854;45.922;6.716;2022-11-15T16:18:20;13.30;72.40
21387;DHT22;10854;45.922;6.716;2022-11-15T16:20:51;13.30;72.80
21387;DHT22;10854;45.922;6.716;2022-11-15T16:23:24;13.30;73.10
21387;DHT22;10854;45.922;6.716;2022-11-15T16:25:55;13.20;73.20
21387;DHT22;10854;45.922;6.716;2022-11-15T16:31:55;13.20;73.40
21387;DHT22;10854;45.922;6.716;2022-11-15T16:35:41;13.10;73.30
21387;DHT22;10854;45.922;6.716;2022-11-15T16:38:22;13.10;73.30
21387;DHT22;10854;45.922;6.716;2022-11-15T16:41:04;13.10;73.30
21387;DHT22;10854;45.922;6.716;2022-11-15T16:43:58;13.10;73.50
21387;DHT22;10854;45.922;6.716;2022-11-15T16:46:38;13.00;73.50
21387;DHT22;10854;45.922;6.716;2022-11-15T16:49:42;13.00;73.40
21387;DHT22;10854;45.922;6.716;2022-11-15T16:52:18;13.00;74.00
21387;DHT22;10854;45.922;6.716;2022-11-15T16:55:21;12.90;74.50
21387;DHT22;10854;45.922;6.716;2022-11-15T16:58:21;12.90;75.40
21387;DHT22;10854;45.922;6.716;2022-11-15T17:01:23;12.80;75.60
21387;DHT22;10854;45.922;6.716;2022-11-15T17:03:52;12.80;75.60
21387;DHT22;10854;45.922;6.716;2022-11-15T17:06:31;12.80;75.20
21387;DHT22;10854;45.922;6.716;2022-11-15T17:09:31;12.80;75.00
21387;DHT22;10854;45.922;6.716;2022-11-15T17:12:15;12.80;74.10
21387;DHT22;10854;45.922;6.716;2022-11-15T17:16:05;12.90;73.70
21387;DHT22;10854;45.922;6.716;2022-11-15T17:18:36;12.90;78.50
21387;DHT22;10854;45.922;6.716;2022-11-15T17:33:38;12.40;83.00
21387;DHT22;10854;45.922;6.716;2022-11-15T17:36:39;12.30;83.20
21387;DHT22;10854;45.922;6.716;2022-11-15T17:39:13;12.10;84.60
21387;DHT22;10854;45.922;6.716;2022-11-15T17:41:45;12.00;86.80
21387;DHT22;10854;45.922;6.716;2022-11-15T17:44:43;12.00;87.70
21387;DHT22;10854;45.922;6.716;2022-11-15T17:47:39;11.90;87.80
21387;DHT22;10854;45.922;6.716;2022-11-15T17:50:12;11.80;88.10
21387;DHT22;10854;45.922;6.716;2022-11-15T17:53:12;11.80;88.30
21387;DHT22;10854;45.922;6.716;2022-11-15T17:55:49;11.70;89.00
21387;DHT22;10854;45.922;6.716;2022-11-15T17:58:20;11.70;89.80
21387;DHT22;10854;45.922;6.716;2022-11-15T18:00:49;11.60;90.30
21387;DHT22;10854;45.922;6.716;2022-11-15T18:03:18;11.50;90.90
21387;DHT22;10854;45.922;6.716;2022-11-15T18:06:29;11.40;91.40
21387;DHT22;10854;45.922;6.716;2022-11-15T18:08:59;11.30;92.50
21387;DHT22;10854;45.922;6.716;2022-11-15T18:11:40;11.20;93.40
21387;DHT22;10854;45.922;6.716;2022-11-15T18:14:21;11.10;94.70
21387;DHT22;10854;45.922;6.716;2022-11-15T18:17:11;11.00;96.00
21387;DHT22;10854;45.922;6.716;2022-11-15T18:20:15;10.90;97.70
21387;DHT22;10854;45.922;6.716;2022-11-15T18:22:52;10.80;99.90
21387;DHT22;10854;45.922;6.716;2022-11-15T18:25:24;10.80;99.90
21387;DHT22;10854;45.922;6.716;2022-11-15T18:27:53;10.70;99.90
21387;DHT22;10854;45.922;6.716;2022-11-15T18:30:22;10.70;99.90
21387;DHT22;10854;45.922;6.716;2022-11-15T18:32:51;10.60;99.90
21387;DHT22;10854;45.922;6.716;2022-11-15T18:35:32;10.60;99.90
21387;DHT22;10854;45.922;6.716;2022-11-15T18:38:08;10.50;99.90
21387;DHT22;10854;45.922;6.716;2022-11-15T18:40:41;10.50;99.90
21387;DHT22;10854;45.922;6.716;2022-11-15T18:43:23;10.40;99.90
21387;DHT22;10854;45.922;6.716;2022-11-15T18:45:52;10.40;99.90
21387;DHT22;10854;45.922;6.716;2022-11-15T18:48:29;10.40;99.90
21387;DHT22;10854;45.922;6.716;2022-11-15T18:51:08;10.40;99.90
21387;DHT22;10854;45.922;6.716;2022-11-15T18:53:45;10.40;99.90
21387;DHT22;10854;45.922;6.716;2022-11-15T18:56:19;10.50;99.90
21387;DHT22;10854;45.922;6.716;2022-11-15T18:58:59;10.50;99.90
21387;DHT22;10854;45.922;6.716;2022-11-15T19:01:34;10.50;99.90
21387;DHT22;10854;45.922;6.716;2022-11-15T19:04:08;10.50;99.90